createdAt,value
2023-01-20T00:01:48.339Z,23.77
2023-01-20T00:04:19.255Z,23.88
2023-01-20T00:06:46.843Z,24.13
2023-01-20T00:09:17.474Z,24.30
2023-01-20T00:11:45.100Z,26.23
2023-01-20T00:14:14.455Z,24.10
2023-01-20T00:16:41.971Z,23.30
2023-01-20T00:19:13.439Z,23.83
2023-01-20T00:21:41.394Z,22.27
2023-01-20T00:24:08.735Z,20.45
2023-01-20T00:26:36.116Z,21.33
2023-01-20T00:29:03.178Z,22.23
2023-01-20T00:31:32.283Z,20.75
2023-01-20T00:34:03.391Z,22.27
2023-01-20T00:36:32.932Z,22.05
2023-01-20T00:39:01.816Z,22.70
2023-01-20T00:41:29.008Z,21.42
2023-01-20T00:43:58.713Z,21.95
2023-01-20T00:46:25.939Z,22.10
2023-01-20T00:48:53.163Z,22.05
2023-01-20T00:51:20.467Z,20.88
2023-01-20T00:53:47.757Z,21.48
2023-01-20T00:56:14.923Z,21.15
2023-01-20T00:58:44.509Z,21.20
2023-01-20T01:01:12.785Z,21.73
2023-01-20T01:03:40.115Z,20.83
2023-01-20T01:06:18.811Z,23.65
2023-01-20T01:08:46.458Z,21.58
2023-01-20T01:11:14.035Z,21.27
2023-01-20T01:13:41.700Z,22.58
2023-01-20T01:16:14.523Z,21.33
2023-01-20T01:18:42.986Z,21.98
2023-01-20T01:21:14.199Z,21.77
2023-01-20T01:23:41.339Z,23.10
2023-01-20T01:26:11.056Z,22.33
2023-01-20T01:28:38.574Z,23.80
2023-01-20T01:31:17.567Z,23.98
2023-01-20T01:33:45.212Z,21.23
2023-01-20T01:36:18.013Z,23.92
2023-01-20T01:38:45.479Z,21.25
2023-01-20T01:41:25.210Z,22.35
2023-01-20T01:44:15.070Z,21.52
2023-01-20T01:46:43.338Z,21.55
2023-01-20T01:49:18.635Z,21.75
2023-01-20T01:51:54.684Z,21.83
2023-01-20T01:54:27.629Z,21.23
2023-01-20T01:56:55.331Z,21.85
2023-01-20T01:59:22.482Z,21.77
2023-01-20T02:01:53.014Z,21.25
2023-01-20T02:04:23.987Z,22.88
2023-01-20T02:07:06.412Z,21.65
2023-01-20T02:12:08.229Z,20.35
2023-01-20T02:14:55.870Z,21.95
2023-01-20T02:17:35.550Z,21.38
2023-01-20T02:20:36.547Z,20.58
2023-01-20T02:23:43.616Z,21.05
2023-01-20T02:26:57.186Z,22.38
2023-01-20T02:29:58.196Z,20.70
2023-01-20T02:32:40.176Z,23.33
2023-01-20T02:35:36.003Z,22.50
2023-01-20T02:38:37.465Z,22.52
2023-01-20T02:41:23.592Z,21.40
2023-01-20T02:44:22.396Z,21.27
2023-01-20T02:47:20.640Z,21.98
2023-01-20T02:49:56.304Z,22.42
2023-01-20T02:52:38.070Z,22.25
2023-01-20T02:55:10.424Z,21.48
2023-01-20T02:57:52.237Z,21.55
2023-01-20T03:00:51.964Z,23.20
2023-01-20T03:03:28.619Z,21.65
2023-01-20T03:05:59.891Z,21.25
2023-01-20T03:08:31.751Z,22.93
2023-01-20T03:11:05.708Z,22.75
2023-01-20T03:13:45.384Z,22.45
2023-01-20T03:16:19.145Z,23.40
2023-01-20T03:18:47.041Z,22.50
2023-01-20T03:21:14.690Z,22.63
2023-01-20T03:23:58.327Z,20.67
2023-01-20T03:26:25.511Z,21.75
2023-01-20T03:28:54.780Z,21.33
2023-01-20T03:31:41.358Z,22.90
2023-01-20T03:34:14.850Z,24.10
2023-01-20T03:36:45.338Z,23.88
2023-01-20T03:39:12.818Z,23.02
2023-01-20T03:42:22.573Z,22.00
2023-01-20T03:45:01.846Z,22.27
2023-01-20T03:48:18.598Z,23.45
2023-01-20T03:50:57.498Z,24.15
2023-01-20T03:53:55.064Z,22.30
2023-01-20T03:56:47.397Z,21.67
2023-01-20T03:59:18.808Z,23.33
2023-01-20T04:01:46.999Z,24.63
2023-01-20T04:04:19.598Z,22.08
2023-01-20T04:06:53.103Z,22.73
2023-01-20T04:09:35.210Z,22.10
2023-01-20T04:12:02.863Z,22.67
2023-01-20T04:14:30.118Z,23.17
2023-01-20T04:16:59.261Z,21.13
2023-01-20T04:19:26.753Z,21.38
2023-01-20T04:22:20.800Z,20.73
2023-01-20T04:25:16.737Z,20.40
2023-01-20T04:27:44.280Z,20.95
2023-01-20T04:30:13.591Z,18.80
2023-01-20T04:32:40.811Z,20.90
2023-01-20T04:35:09.738Z,20.17
2023-01-20T04:37:44.795Z,18.90
2023-01-20T04:40:14.899Z,20.48
2023-01-20T04:42:42.066Z,21.08
2023-01-20T04:45:17.168Z,22.25
2023-01-20T04:47:49.341Z,19.48
2023-01-20T04:50:19.109Z,19.73
2023-01-20T04:52:46.322Z,20.85
2023-01-20T04:55:13.861Z,18.73
2023-01-20T04:57:41.129Z,19.73
2023-01-20T05:00:09.289Z,18.70
2023-01-20T05:02:36.379Z,20.95
2023-01-20T05:05:03.680Z,19.15
2023-01-20T05:07:30.859Z,18.25
2023-01-20T05:10:01.320Z,18.10
2023-01-20T05:12:28.551Z,18.88
2023-01-20T05:14:58.249Z,17.83
2023-01-20T05:17:25.379Z,18.45
2023-01-20T05:19:52.452Z,17.90
2023-01-20T05:22:19.632Z,19.10
2023-01-20T05:24:46.781Z,19.50
2023-01-20T05:27:13.837Z,19.63
2023-01-20T05:29:40.911Z,19.15
2023-01-20T05:32:08.101Z,20.05
2023-01-20T05:34:35.350Z,18.48
2023-01-20T05:37:05.132Z,18.58
2023-01-20T05:39:32.239Z,19.40
2023-01-20T05:41:59.492Z,19.75
2023-01-20T05:44:26.570Z,17.80
2023-01-20T05:46:53.770Z,18.45
2023-01-20T05:49:20.940Z,19.02
2023-01-20T05:51:48.508Z,18.23
2023-01-20T05:54:18.548Z,18.02
2023-01-20T05:56:47.750Z,18.70
2023-01-20T05:59:14.877Z,18.40
2023-01-20T06:01:42.075Z,19.95
2023-01-20T06:04:09.958Z,19.08
2023-01-20T06:06:38.062Z,18.70
2023-01-20T06:09:06.732Z,18.90
2023-01-20T06:11:34.115Z,18.88
2023-01-20T06:14:01.411Z,17.20
2023-01-20T06:16:29.975Z,19.40
2023-01-20T06:18:57.818Z,20.75
2023-01-20T06:21:25.177Z,24.13
2023-01-20T06:23:54.436Z,23.02
2023-01-20T06:26:23.966Z,20.67
2023-01-20T06:28:51.252Z,21.15
2023-01-20T06:31:20.475Z,21.23
2023-01-20T06:33:47.532Z,19.98
2023-01-20T06:36:17.121Z,18.35
2023-01-20T06:38:48.616Z,20.45
2023-01-20T06:41:17.106Z,20.15
2023-01-20T06:43:47.417Z,19.70
2023-01-20T06:46:16.287Z,20.10
2023-01-20T06:48:45.099Z,20.30
2023-01-20T06:51:20.976Z,19.20
2023-01-20T06:53:48.575Z,19.88
2023-01-20T06:56:16.137Z,19.92
2023-01-20T06:58:43.816Z,20.20
2023-01-20T07:01:31.162Z,20.25
2023-01-20T07:03:58.992Z,20.50
2023-01-20T07:06:41.025Z,21.35
2023-01-20T07:09:11.581Z,21.05
2023-01-20T07:11:39.882Z,21.08
2023-01-20T07:14:07.738Z,22.23
2023-01-20T07:16:35.216Z,21.80
2023-01-20T07:19:04.890Z,19.38
2023-01-20T07:21:32.492Z,19.77
2023-01-20T07:24:03.094Z,19.08
2023-01-20T07:26:30.876Z,20.10
2023-01-20T07:28:59.409Z,20.05
2023-01-20T07:31:31.806Z,20.17
2023-01-20T07:34:00.183Z,21.35
2023-01-20T07:36:29.975Z,19.73
2023-01-20T07:38:57.361Z,19.48
2023-01-20T07:41:24.667Z,19.80
2023-01-20T07:43:53.299Z,20.38
2023-01-20T07:46:21.883Z,21.42
2023-01-20T07:48:55.643Z,21.83
2023-01-20T07:51:25.384Z,21.25
2023-01-20T07:53:52.588Z,21.23
2023-01-20T07:56:28.119Z,21.70
2023-01-20T07:58:56.304Z,21.52
2023-01-20T08:01:32.980Z,21.25
2023-01-20T08:04:00.888Z,20.75
2023-01-20T08:06:28.645Z,20.55
2023-01-20T08:08:58.720Z,23.30
2023-01-20T08:11:26.228Z,21.30
2023-01-20T08:13:55.837Z,21.65
2023-01-20T08:16:23.339Z,21.27
2023-01-20T08:18:53.245Z,21.92
2023-01-20T08:21:30.681Z,22.42
2023-01-20T08:24:05.584Z,22.38
2023-01-20T08:26:36.809Z,23.42
2023-01-20T08:29:10.216Z,22.93
2023-01-20T08:31:38.341Z,21.27
2023-01-20T08:34:05.948Z,20.38
2023-01-20T08:36:37.138Z,21.50
2023-01-20T08:39:07.706Z,20.73
2023-01-20T08:41:39.241Z,20.83
2023-01-20T08:44:08.272Z,20.88
2023-01-20T08:46:41.667Z,21.48
2023-01-20T08:49:13.358Z,22.42
2023-01-20T08:51:41.156Z,20.77
2023-01-20T08:54:08.527Z,21.35
2023-01-20T08:56:36.925Z,21.45
2023-01-20T08:59:04.894Z,20.55
2023-01-20T09:01:37.980Z,20.23
2023-01-20T09:04:07.317Z,19.55
2023-01-20T09:06:50.300Z,19.30
2023-01-20T09:09:21.398Z,19.95
2023-01-20T09:11:52.157Z,20.35
2023-01-20T09:14:25.186Z,18.90
2023-01-20T09:16:52.610Z,18.90
2023-01-20T09:19:19.902Z,19.30
2023-01-20T09:21:51.849Z,19.52
2023-01-20T09:24:19.034Z,19.48
2023-01-20T09:26:47.377Z,21.83
2023-01-20T09:29:18.064Z,20.48
2023-01-20T09:31:53.949Z,20.95
2023-01-20T09:34:22.588Z,21.88
2023-01-20T09:36:58.644Z,21.50
2023-01-20T09:39:47.248Z,19.75
2023-01-20T09:43:29.870Z,21.00
2023-01-20T09:46:29.034Z,20.95
2023-01-20T09:49:53.406Z,21.38
2023-01-20T09:52:52.205Z,20.30
2023-01-20T09:55:31.990Z,20.92
2023-01-20T09:58:25.010Z,20.67
2023-01-20T10:01:37.982Z,19.45
2023-01-20T10:04:07.532Z,18.40
2023-01-20T10:07:09.405Z,18.90
2023-01-20T10:10:02.954Z,13.93
2023-01-20T10:12:33.595Z,18.27
2023-01-20T10:15:21.458Z,18.98
2023-01-20T10:17:59.303Z,17.70
2023-01-20T10:20:50.610Z,17.92
2023-01-20T10:23:53.604Z,17.13
2023-01-20T10:27:10.237Z,17.70
2023-01-20T10:29:41.812Z,17.83
2023-01-20T10:32:33.460Z,17.37
2023-01-20T10:35:18.584Z,18.67
2023-01-20T10:37:46.129Z,19.00
2023-01-20T10:40:51.249Z,19.23
2023-01-20T10:43:19.318Z,17.08
2023-01-20T10:46:23.708Z,18.48
2023-01-20T10:49:37.179Z,18.25
2023-01-20T10:52:35.038Z,17.85
2023-01-20T10:55:35.907Z,18.23
2023-01-20T10:58:14.975Z,18.45
2023-01-20T11:00:45.760Z,19.25
2023-01-20T11:03:20.743Z,20.02
2023-01-20T11:05:50.812Z,19.33
2023-01-20T11:08:27.420Z,18.00
2023-01-20T11:11:14.690Z,19.02
2023-01-20T11:13:41.914Z,19.73
2023-01-20T11:16:19.330Z,19.30
2023-01-20T11:19:16.031Z,18.67
2023-01-20T11:21:43.212Z,18.27
2023-01-20T11:24:42.195Z,18.05
2023-01-20T11:27:20.487Z,17.50
2023-01-20T11:30:01.224Z,16.08
2023-01-20T11:32:36.765Z,16.20
2023-01-20T11:35:25.363Z,16.85
2023-01-20T11:37:52.898Z,16.50
2023-01-20T11:40:29.507Z,15.15
2023-01-20T11:42:56.576Z,14.98
2023-01-20T11:45:29.656Z,15.70
2023-01-20T11:48:15.998Z,15.60
2023-01-20T11:50:50.474Z,13.68
2023-01-20T11:53:29.249Z,14.10
2023-01-20T11:56:05.766Z,15.13
2023-01-20T11:58:54.637Z,15.10
2023-01-20T12:01:28.916Z,15.88
2023-01-20T12:04:53.023Z,15.57
2023-01-20T12:07:35.465Z,17.25
2023-01-20T12:13:04.803Z,18.88
2023-01-20T12:15:41.748Z,19.52
2023-01-20T12:18:20.098Z,19.25
2023-01-20T12:20:59.311Z,20.30
2023-01-20T12:24:21.794Z,20.70
2023-01-20T12:26:49.927Z,19.40
2023-01-20T12:29:37.887Z,20.23
2023-01-20T12:32:05.353Z,20.33
2023-01-20T12:34:34.527Z,20.23
2023-01-20T12:37:50.575Z,20.25
2023-01-20T12:40:20.410Z,18.90
2023-01-20T12:43:31.360Z,19.60
2023-01-20T12:46:36.157Z,19.88
2023-01-20T12:49:49.456Z,21.83
2023-01-20T12:52:36.087Z,20.65
2023-01-20T12:55:27.528Z,19.90
2023-01-20T12:58:40.531Z,20.13
2023-01-20T13:04:40.607Z,20.00
2023-01-20T13:07:25.325Z,18.17
2023-01-20T13:10:01.267Z,18.65
2023-01-20T13:13:13.551Z,19.40
2023-01-20T13:15:52.678Z,20.05
2023-01-20T13:18:36.071Z,19.17
2023-01-20T13:21:03.277Z,21.15
2023-01-20T13:23:37.455Z,20.77
2023-01-20T13:26:06.081Z,18.67
2023-01-20T13:28:33.272Z,18.27
2023-01-20T13:33:42.758Z,17.95
2023-01-20T13:36:24.474Z,19.08
2023-01-20T13:39:42.121Z,18.42
2023-01-20T13:42:31.232Z,17.25
2023-01-20T13:45:22.613Z,18.73
2023-01-20T13:48:08.365Z,16.83
2023-01-20T13:50:42.359Z,17.02
2023-01-20T13:53:21.154Z,16.45
2023-01-20T13:55:50.896Z,18.38
2023-01-20T13:58:34.157Z,17.95
2023-01-20T14:01:07.854Z,17.35
2023-01-20T14:03:38.902Z,18.05
2023-01-20T14:06:22.197Z,18.45
2023-01-20T14:08:51.130Z,16.08
2023-01-20T14:11:22.042Z,17.13
2023-01-20T14:14:01.925Z,15.50
2023-01-20T14:16:41.895Z,16.55
2023-01-20T14:19:34.772Z,15.95
2023-01-20T14:22:23.073Z,17.42
2023-01-20T14:25:00.651Z,16.90
2023-01-20T14:27:29.955Z,15.63
2023-01-20T14:30:13.555Z,17.00
2023-01-20T14:32:40.962Z,16.35
2023-01-20T14:35:24.205Z,15.45
2023-01-20T14:37:52.639Z,16.10
2023-01-20T14:40:40.299Z,17.20
2023-01-20T14:43:18.475Z,17.85
2023-01-20T14:45:48.922Z,16.73
2023-01-20T14:48:32.432Z,16.73
2023-01-20T14:51:02.765Z,16.50
2023-01-20T14:53:30.086Z,18.17
2023-01-20T14:56:16.324Z,22.50
2023-01-20T14:58:49.883Z,20.30
2023-01-20T15:01:27.214Z,19.58
2023-01-20T15:04:00.264Z,21.63
2023-01-20T15:06:27.882Z,22.27
2023-01-20T15:09:06.574Z,19.60
2023-01-20T15:11:36.449Z,19.42
2023-01-20T15:14:08.434Z,19.95
2023-01-20T15:16:44.798Z,20.48
2023-01-20T15:19:20.675Z,20.83
2023-01-20T15:21:48.905Z,21.30
2023-01-20T15:24:30.650Z,23.95
2023-01-20T15:27:00.743Z,22.60
2023-01-20T15:29:33.169Z,21.02
2023-01-20T15:32:09.150Z,23.35
2023-01-20T15:34:36.358Z,19.92
2023-01-20T15:37:11.909Z,20.17
2023-01-20T15:39:41.572Z,19.15
2023-01-20T15:42:11.619Z,22.48
2023-01-20T15:44:38.757Z,23.83
2023-01-20T15:47:30.985Z,25.98
2023-01-20T15:49:58.486Z,22.98
2023-01-20T15:52:25.659Z,23.92
2023-01-20T15:54:52.786Z,25.88
2023-01-20T15:57:22.521Z,28.58
2023-01-20T15:59:50.251Z,29.40
2023-01-20T16:02:23.607Z,32.00
2023-01-20T16:04:50.728Z,23.92
2023-01-20T16:07:20.538Z,29.45
2023-01-20T16:09:47.679Z,28.60
2023-01-20T16:12:17.554Z,31.33
2023-01-20T16:14:45.404Z,30.13
2023-01-20T16:17:17.922Z,27.33
2023-01-20T16:19:45.151Z,23.15
2023-01-20T16:22:13.615Z,26.75
2023-01-20T16:24:44.417Z,23.45
2023-01-20T16:27:21.068Z,23.10
2023-01-20T16:29:48.901Z,24.17
2023-01-20T16:32:18.291Z,23.10
2023-01-20T16:34:47.117Z,23.35
2023-01-20T16:37:14.817Z,25.75
2023-01-20T16:39:42.112Z,24.13
2023-01-20T16:42:14.829Z,22.92
2023-01-20T16:44:41.999Z,25.20
2023-01-20T16:47:09.225Z,21.85
2023-01-20T16:49:36.338Z,20.90
2023-01-20T16:52:03.945Z,24.38
2023-01-20T16:54:31.133Z,27.23
2023-01-20T16:56:58.271Z,25.05
2023-01-20T16:59:27.600Z,26.17
2023-01-20T17:01:54.746Z,22.80
2023-01-20T17:04:21.886Z,20.35
2023-01-20T17:06:48.963Z,20.80
2023-01-20T17:09:16.031Z,20.25
2023-01-20T17:11:43.257Z,23.38
2023-01-20T17:14:11.677Z,22.42
2023-01-20T17:16:39.855Z,23.42
2023-01-20T17:19:07.287Z,25.33
2023-01-20T17:21:38.986Z,24.60
2023-01-20T17:24:07.444Z,27.25
2023-01-20T17:26:37.080Z,28.45
2023-01-20T17:29:05.665Z,29.13
2023-01-20T17:31:37.135Z,26.75
2023-01-20T17:34:06.414Z,24.70
2023-01-20T17:36:34.924Z,25.92
2023-01-20T17:39:06.299Z,25.95
2023-01-20T17:41:34.654Z,27.58
2023-01-20T17:44:02.168Z,24.02
2023-01-20T17:46:30.992Z,26.20
2023-01-20T17:49:00.359Z,23.27
2023-01-20T17:51:29.578Z,22.15
2023-01-20T17:53:58.585Z,21.38
2023-01-20T17:56:26.776Z,21.52
2023-01-20T17:58:56.332Z,23.33
2023-01-20T18:01:30.440Z,21.85
2023-01-20T18:03:59.036Z,23.15
2023-01-20T18:06:28.261Z,24.48
2023-01-20T18:08:58.406Z,27.88
2023-01-20T18:11:28.018Z,26.73
2023-01-20T18:13:57.647Z,27.27
2023-01-20T18:16:29.668Z,31.95
2023-01-20T18:18:59.176Z,27.42
2023-01-20T18:21:38.340Z,30.35
2023-01-20T18:24:08.195Z,30.95
2023-01-20T18:26:38.572Z,30.65
2023-01-20T18:29:10.461Z,32.92
2023-01-20T18:34:10.960Z,30.92
2023-01-20T18:36:41.906Z,31.75
2023-01-20T18:39:18.305Z,31.77
2023-01-20T18:41:45.999Z,34.05
2023-01-20T18:44:13.663Z,33.33
2023-01-20T18:46:41.091Z,33.42
2023-01-20T18:49:10.728Z,31.23
2023-01-20T18:51:40.288Z,29.55
2023-01-20T18:54:11.937Z,30.70
2023-01-20T18:56:39.447Z,23.50
2023-01-20T18:59:07.701Z,30.88
2023-01-20T19:01:40.441Z,32.08
2023-01-20T19:04:11.339Z,30.60
2023-01-20T19:06:42.027Z,30.25
2023-01-20T19:09:16.130Z,28.13
2023-01-20T19:11:43.607Z,31.75
2023-01-20T19:14:15.404Z,31.52
2023-01-20T19:16:45.498Z,30.23
2023-01-20T19:19:13.833Z,27.83
2023-01-20T19:21:41.795Z,27.60
2023-01-20T19:24:16.801Z,28.70
2023-01-20T19:26:44.205Z,27.08
2023-01-20T19:29:15.855Z,27.20
2023-01-20T19:31:43.384Z,25.08
2023-01-20T19:34:13.256Z,24.77
2023-01-20T19:36:41.073Z,24.80
2023-01-20T19:39:10.694Z,24.40
2023-01-20T19:41:39.028Z,25.48
2023-01-20T19:44:08.064Z,24.77
2023-01-20T19:46:39.057Z,24.27
2023-01-20T19:49:06.845Z,24.23
2023-01-20T19:51:34.146Z,24.73
2023-01-20T19:54:02.722Z,23.10
2023-01-20T19:56:32.993Z,25.30
2023-01-20T19:59:01.284Z,23.00
2023-01-20T20:01:32.580Z,24.75
2023-01-20T20:04:05.567Z,24.83
2023-01-20T20:06:44.986Z,22.42
2023-01-20T20:09:26.064Z,24.33
2023-01-20T20:11:56.244Z,23.38
2023-01-20T20:14:23.714Z,22.73
2023-01-20T20:16:51.271Z,24.33
2023-01-20T20:19:19.841Z,23.02
2023-01-20T20:21:47.212Z,23.33
2023-01-20T20:24:16.919Z,25.20
2023-01-20T20:26:46.343Z,22.77
2023-01-20T20:29:15.529Z,23.52
2023-01-20T20:31:45.480Z,22.92
2023-01-20T20:34:17.522Z,22.88
2023-01-20T20:36:47.342Z,26.70
2023-01-20T20:39:17.717Z,24.08
2023-01-20T20:41:45.786Z,22.50
2023-01-20T20:44:13.370Z,24.45
2023-01-20T20:46:40.963Z,21.30
2023-01-20T20:49:12.884Z,22.70
2023-01-20T20:51:40.093Z,22.98
2023-01-20T20:54:09.149Z,25.00
2023-01-20T20:56:37.151Z,24.40
2023-01-20T20:59:04.288Z,24.05
2023-01-20T21:01:34.018Z,23.75
2023-01-20T21:04:04.579Z,24.40
2023-01-20T21:06:32.944Z,23.67
2023-01-20T21:09:00.648Z,24.30
2023-01-20T21:11:28.989Z,26.40
2023-01-20T21:13:56.685Z,24.27
2023-01-20T21:16:25.728Z,24.17
2023-01-20T21:18:58.370Z,26.38
2023-01-20T21:21:25.953Z,24.60
2023-01-20T21:23:56.118Z,23.40
2023-01-20T21:26:30.272Z,23.38
2023-01-20T21:29:01.960Z,23.98
2023-01-20T21:31:31.568Z,24.23
2023-01-20T21:34:00.475Z,24.10
2023-01-20T21:36:34.036Z,23.50
2023-01-20T21:39:01.362Z,24.60
2023-01-20T21:41:28.790Z,22.30
2023-01-20T21:44:14.568Z,21.85
2023-01-20T21:46:41.971Z,22.77
2023-01-20T21:49:27.913Z,22.27
2023-01-20T21:52:14.988Z,20.35
2023-01-20T21:54:45.633Z,20.75
2023-01-20T21:57:15.070Z,22.58
2023-01-20T21:59:45.835Z,21.90
2023-01-20T22:02:14.623Z,21.08
2023-01-20T22:04:47.098Z,22.33
2023-01-20T22:07:17.621Z,23.15
2023-01-20T22:09:45.344Z,23.20
2023-01-20T22:15:21.580Z,21.77
2023-01-20T22:17:49.414Z,21.20
2023-01-20T22:20:20.433Z,21.23
2023-01-20T22:22:50.782Z,15.97
2023-01-20T22:25:20.547Z,22.92
2023-01-20T22:27:49.248Z,21.08
2023-01-20T22:30:19.904Z,20.80
2023-01-20T22:32:47.364Z,21.08
2023-01-20T22:35:15.227Z,21.67
2023-01-20T22:37:45.616Z,22.98
2023-01-20T22:40:20.514Z,22.25
2023-01-20T22:42:48.205Z,23.90
2023-01-20T22:45:18.631Z,24.23
2023-01-20T22:47:50.275Z,22.65
2023-01-20T22:50:17.894Z,21.58
2023-01-20T22:52:45.475Z,21.23
2023-01-20T22:55:12.723Z,21.75
2023-01-20T22:57:40.251Z,21.42
2023-01-20T23:00:11.291Z,19.60
2023-01-20T23:02:42.699Z,20.90
2023-01-20T23:05:12.483Z,15.80
2023-01-20T23:07:39.588Z,20.30
2023-01-20T23:10:07.788Z,21.30
2023-01-20T23:12:34.939Z,19.65
2023-01-20T23:15:02.882Z,21.40
2023-01-20T23:17:31.404Z,20.98
2023-01-20T23:19:58.574Z,21.42
2023-01-20T23:22:25.809Z,19.48
2023-01-20T23:24:52.983Z,20.58
2023-01-20T23:27:20.107Z,23.38
2023-01-20T23:29:49.226Z,19.08
2023-01-20T23:32:16.383Z,20.17
2023-01-20T23:34:43.501Z,19.48
2023-01-20T23:37:10.727Z,18.65
2023-01-20T23:39:37.861Z,18.63
2023-01-20T23:42:05.122Z,18.70
2023-01-20T23:44:32.299Z,19.90
2023-01-20T23:47:01.796Z,18.98
2023-01-20T23:49:28.919Z,18.92
2023-01-20T23:51:56.162Z,18.95
2023-01-20T23:54:23.637Z,18.15
2023-01-20T23:56:50.770Z,17.17
2023-01-20T23:59:18.030Z,15.80
